createdAt,value
2019-01-20T00:00:51.586Z,-9.00
2019-01-20T00:03:23.287Z,-9.00
2019-01-20T00:05:53.029Z,-9.00
2019-01-20T00:08:22.125Z,-9.00
2019-01-20T00:10:53.239Z,-9.00
2019-01-20T00:13:22.472Z,-9.00
2019-01-20T00:15:51.969Z,-9.00
2019-01-20T00:18:21.369Z,-9.00
2019-01-20T00:20:50.818Z,-9.00
2019-01-20T00:23:19.761Z,-9.00
2019-01-20T00:25:49.399Z,-9.00
2019-01-20T00:28:18.673Z,-9.10
2019-01-20T00:30:47.966Z,-9.10
2019-01-20T00:33:16.974Z,-9.10
2019-01-20T00:35:46.477Z,-9.10
2019-01-20T00:38:15.533Z,-9.10
2019-01-20T00:40:44.582Z,-9.10
2019-01-20T00:43:13.885Z,-9.00
2019-01-20T00:45:43.513Z,-9.00
2019-01-20T00:48:13.380Z,-8.90
2019-01-20T00:50:42.862Z,-8.90
2019-01-20T00:53:12.266Z,-8.90
2019-01-20T00:55:42.196Z,-8.90
2019-01-20T00:58:11.166Z,-8.90
2019-01-20T01:00:40.339Z,-8.90
2019-01-20T01:03:09.797Z,-8.90
2019-01-20T01:05:39.891Z,-8.90
2019-01-20T01:08:09.527Z,-9.00
2019-01-20T01:10:38.954Z,-9.00
2019-01-20T01:13:09.301Z,-9.00
2019-01-20T01:15:40.350Z,-9.10
2019-01-20T01:18:09.589Z,-9.10
2019-01-20T01:20:38.897Z,-9.20
2019-01-20T01:23:07.862Z,-9.20
2019-01-20T01:25:37.282Z,-9.30
2019-01-20T01:28:06.338Z,-9.30
2019-01-20T01:30:35.329Z,-9.30
2019-01-20T01:33:04.416Z,-9.20
2019-01-20T01:35:33.862Z,-9.20
2019-01-20T01:38:02.794Z,-9.20
2019-01-20T01:40:31.830Z,-9.20
2019-01-20T01:43:01.254Z,-9.10
2019-01-20T01:45:30.590Z,-9.00
2019-01-20T01:47:59.846Z,-8.90
2019-01-20T01:50:29.153Z,-8.80
2019-01-20T01:52:58.113Z,-8.70
2019-01-20T01:55:27.308Z,-8.70
2019-01-20T01:57:56.853Z,-8.70
2019-01-20T02:00:25.982Z,-8.70
2019-01-20T02:02:56.398Z,-8.60
2019-01-20T02:05:25.742Z,-8.60
2019-01-20T02:07:54.769Z,-8.60
2019-01-20T02:10:23.915Z,-8.50
2019-01-20T02:12:53.757Z,-8.50
2019-01-20T02:15:23.140Z,-8.50
2019-01-20T02:17:52.256Z,-8.50
2019-01-20T02:20:24.913Z,-8.60
2019-01-20T02:22:54.092Z,-8.60
2019-01-20T02:25:23.566Z,-8.60
2019-01-20T02:27:55.169Z,-8.60
2019-01-20T02:30:30.821Z,-8.60
2019-01-20T02:33:00.330Z,-8.60
2019-01-20T02:35:29.778Z,-8.60
2019-01-20T02:37:59.039Z,-8.50
2019-01-20T02:40:28.287Z,-8.30
2019-01-20T02:42:57.646Z,-8.30
2019-01-20T02:45:30.982Z,-8.20
2019-01-20T02:48:00.599Z,-8.20
2019-01-20T02:50:29.776Z,-8.20
2019-01-20T02:52:59.069Z,-8.20
2019-01-20T02:55:28.303Z,-8.30
2019-01-20T02:57:57.697Z,-8.30
2019-01-20T03:00:27.011Z,-8.30
2019-01-20T03:02:56.345Z,-8.20
2019-01-20T03:05:26.314Z,-8.20
2019-01-20T03:07:55.711Z,-8.20
2019-01-20T03:10:24.832Z,-8.10
2019-01-20T03:12:54.090Z,-8.00
2019-01-20T03:15:23.201Z,-8.00
2019-01-20T03:17:52.750Z,-7.90
2019-01-20T03:20:23.447Z,-7.80
2019-01-20T03:22:53.357Z,-7.60
2019-01-20T03:25:22.966Z,-7.50
2019-01-20T03:27:52.359Z,-7.30
2019-01-20T03:30:24.883Z,-7.20
2019-01-20T03:32:55.943Z,-7.00
2019-01-20T03:35:26.561Z,-6.90
2019-01-20T03:37:56.240Z,-6.80
2019-01-20T03:40:27.979Z,-6.60
2019-01-20T03:42:57.410Z,-6.60
2019-01-20T03:45:27.178Z,-6.40
2019-01-20T03:47:56.837Z,-6.30
2019-01-20T03:50:26.181Z,-6.20
2019-01-20T03:52:55.700Z,-6.10
2019-01-20T03:55:25.336Z,-6.00
2019-01-20T03:57:56.091Z,-5.90
2019-01-20T04:00:28.065Z,-5.90
2019-01-20T04:03:02.555Z,-5.80
2019-01-20T04:05:33.658Z,-5.80
2019-01-20T04:08:02.642Z,-5.70
2019-01-20T04:10:31.732Z,-5.70
2019-01-20T04:13:00.964Z,-5.70
2019-01-20T04:15:30.147Z,-5.70
2019-01-20T04:17:59.402Z,-5.60
2019-01-20T04:20:28.687Z,-5.60
2019-01-20T04:22:58.031Z,-5.50
2019-01-20T04:25:27.107Z,-5.50
2019-01-20T04:27:56.672Z,-5.40
2019-01-20T04:30:26.086Z,-5.40
2019-01-20T04:32:55.041Z,-5.30
2019-01-20T04:35:24.383Z,-5.30
2019-01-20T04:37:53.731Z,-5.30
2019-01-20T04:40:23.974Z,-5.30
2019-01-20T04:42:52.988Z,-5.10
2019-01-20T04:45:22.310Z,-5.00
2019-01-20T04:47:51.698Z,-5.20
2019-01-20T04:50:23.052Z,-5.20
2019-01-20T04:52:52.261Z,-5.30
2019-01-20T04:55:21.563Z,-5.30
2019-01-20T04:57:52.857Z,-5.40
2019-01-20T05:00:27.160Z,-5.40
2019-01-20T05:02:56.528Z,-5.40
2019-01-20T05:05:27.393Z,-5.40
2019-01-20T05:07:56.421Z,-5.30
2019-01-20T05:10:25.725Z,-5.20
2019-01-20T05:12:54.843Z,-5.20
2019-01-20T05:15:25.309Z,-5.10
2019-01-20T05:17:54.332Z,-5.00
2019-01-20T05:20:23.949Z,-5.00
2019-01-20T05:22:53.146Z,-4.90
2019-01-20T05:25:22.500Z,-4.90
2019-01-20T05:27:51.766Z,-4.80
2019-01-20T05:30:25.690Z,-4.70
2019-01-20T05:32:54.887Z,-4.60
2019-01-20T05:35:24.270Z,-4.60
2019-01-20T05:37:53.743Z,-4.50
2019-01-20T05:40:23.194Z,-4.50
2019-01-20T05:42:52.603Z,-4.40
2019-01-20T05:45:23.766Z,-4.30
2019-01-20T05:47:52.787Z,-4.20
2019-01-20T05:50:21.954Z,-4.20
2019-01-20T05:52:51.165Z,-4.10
2019-01-20T05:55:20.438Z,-4.00
2019-01-20T05:57:49.806Z,-4.00
2019-01-20T06:00:24.437Z,-3.90
2019-01-20T06:02:53.941Z,-3.80
2019-01-20T06:05:23.660Z,-3.80
2019-01-20T06:07:52.963Z,-3.70
2019-01-20T06:10:22.107Z,-3.70
2019-01-20T06:12:54.180Z,-3.60
2019-01-20T06:15:23.010Z,-3.60
2019-01-20T06:17:52.436Z,-3.50
2019-01-20T06:20:22.212Z,-3.40
2019-01-20T06:22:52.079Z,-3.40
2019-01-20T06:25:21.407Z,-3.40
2019-01-20T06:27:50.978Z,-3.40
2019-01-20T06:30:47.852Z,-3.40
2019-01-20T06:33:17.213Z,-3.40
2019-01-20T06:35:46.277Z,-3.30
2019-01-20T06:38:15.582Z,-3.30
2019-01-20T06:40:44.953Z,-3.30
2019-01-20T06:43:14.490Z,-3.40
2019-01-20T06:50:18.211Z,-3.60
2019-01-20T06:52:47.671Z,-3.70
2019-01-20T06:55:16.939Z,-3.80
2019-01-20T06:57:45.922Z,-3.90
2019-01-20T07:00:17.114Z,-4.00
2019-01-20T07:02:46.594Z,-4.10
2019-01-20T07:05:16.031Z,-4.30
2019-01-20T07:07:45.435Z,-4.30
2019-01-20T07:10:15.777Z,-4.40
2019-01-20T07:12:44.799Z,-4.50
2019-01-20T07:15:16.256Z,-4.50
2019-01-20T07:17:45.446Z,-4.50
2019-01-20T07:20:14.771Z,-4.40
2019-01-20T07:22:44.675Z,-4.40
2019-01-20T07:25:14.272Z,-4.30
2019-01-20T07:27:43.553Z,-4.20
2019-01-20T07:30:17.886Z,-4.20
2019-01-20T07:32:47.307Z,-4.10
2019-01-20T07:35:16.826Z,-4.10
2019-01-20T07:37:45.968Z,-4.00
2019-01-20T07:40:16.231Z,-3.90
2019-01-20T07:42:45.567Z,-3.90
2019-01-20T07:45:15.320Z,-3.70
2019-01-20T07:47:44.592Z,-3.60
2019-01-20T07:50:22.034Z,-3.50
2019-01-20T07:52:51.331Z,-3.40
2019-01-20T07:55:20.526Z,-3.30
2019-01-20T07:57:49.748Z,-3.20
2019-01-20T08:00:20.887Z,-3.20
2019-01-20T08:02:49.883Z,-3.10
2019-01-20T08:05:20.054Z,-3.10
2019-01-20T08:07:49.570Z,-2.90
2019-01-20T08:10:24.059Z,-2.60
2019-01-20T08:12:53.761Z,-2.50
2019-01-20T08:15:23.069Z,-2.30
2019-01-20T08:17:52.353Z,-2.10
2019-01-20T08:20:21.943Z,-2.00
2019-01-20T08:22:52.711Z,-1.80
2019-01-20T08:25:22.179Z,-1.80
2019-01-20T08:27:51.401Z,-1.70
2019-01-20T08:30:22.421Z,-1.60
2019-01-20T08:32:51.509Z,-1.60
2019-01-20T08:35:20.531Z,-1.60
2019-01-20T08:37:50.377Z,-1.50
2019-01-20T08:40:24.847Z,-1.50
2019-01-20T08:42:53.969Z,-1.40
2019-01-20T08:45:49.713Z,-1.40
2019-01-20T08:48:20.606Z,-1.40
2019-01-20T08:50:49.673Z,-1.30
2019-01-20T08:53:18.975Z,-1.30
2019-01-20T08:55:50.012Z,-1.20
2019-01-20T08:58:19.369Z,-1.00
2019-01-20T09:00:48.465Z,-0.80
2019-01-20T09:03:17.434Z,-0.60
2019-01-20T09:05:47.150Z,-0.40
2019-01-20T09:08:16.379Z,-0.30
2019-01-20T09:10:45.821Z,0.10
2019-01-20T09:13:15.334Z,0.20
2019-01-20T09:15:44.357Z,0.10
2019-01-20T09:18:13.267Z,0.20
2019-01-20T09:20:42.381Z,0.30
2019-01-20T09:23:11.541Z,0.40
2019-01-20T09:25:40.530Z,0.60
2019-01-20T09:28:09.643Z,0.80
2019-01-20T09:30:38.693Z,0.90
2019-01-20T09:33:51.905Z,1.10
2019-01-20T09:36:20.957Z,1.00
2019-01-20T09:38:50.247Z,1.20
2019-01-20T09:41:19.234Z,1.30
2019-01-20T09:43:48.668Z,1.50
2019-01-20T09:46:17.930Z,1.60
2019-01-20T09:48:46.866Z,1.60
2019-01-20T09:51:15.952Z,1.60
2019-01-20T09:53:44.942Z,1.90
2019-01-20T09:56:14.515Z,1.90
2019-01-20T09:58:43.693Z,1.80
2019-01-20T10:01:13.048Z,1.80
2019-01-20T10:03:42.003Z,2.10
2019-01-20T10:06:11.283Z,2.10
2019-01-20T10:08:40.317Z,2.30
2019-01-20T10:11:09.275Z,2.10
2019-01-20T10:13:38.598Z,2.20
2019-01-20T10:16:07.710Z,2.30
2019-01-20T10:18:39.298Z,2.60
2019-01-20T10:21:10.088Z,2.70
2019-01-20T10:23:39.077Z,2.50
2019-01-20T10:26:08.237Z,2.60
2019-01-20T10:28:37.759Z,2.60
2019-01-20T10:31:06.800Z,2.40
2019-01-20T10:33:35.937Z,1.70
2019-01-20T10:36:08.538Z,1.80
2019-01-20T10:38:37.761Z,1.80
2019-01-20T10:41:06.758Z,1.70
2019-01-20T10:43:36.068Z,2.20
2019-01-20T10:46:05.418Z,2.40
2019-01-20T10:48:34.553Z,2.60
2019-01-20T10:51:03.625Z,2.80
2019-01-20T10:53:32.858Z,3.00
2019-01-20T10:56:01.850Z,3.10
2019-01-20T10:58:30.859Z,3.10
2019-01-20T11:01:00.153Z,3.20
2019-01-20T11:03:29.224Z,3.20
2019-01-20T11:05:58.730Z,3.00
2019-01-20T11:08:28.697Z,3.10
2019-01-20T11:10:57.840Z,3.20
2019-01-20T11:13:26.685Z,3.30
2019-01-20T11:15:55.738Z,3.20
2019-01-20T11:18:24.883Z,3.20
2019-01-20T11:20:53.922Z,3.30
2019-01-20T11:23:23.954Z,3.50
2019-01-20T11:25:53.106Z,3.70
2019-01-20T11:28:22.421Z,3.60
2019-01-20T11:30:51.482Z,3.70
2019-01-20T11:33:20.617Z,3.80
2019-01-20T11:35:49.601Z,3.50
2019-01-20T11:38:18.650Z,3.20
2019-01-20T11:40:48.007Z,3.40
2019-01-20T11:43:17.249Z,3.10
2019-01-20T11:45:46.472Z,3.20
2019-01-20T11:48:15.653Z,3.30
2019-01-20T11:50:44.633Z,3.20
2019-01-20T11:53:14.017Z,3.20
2019-01-20T11:55:43.051Z,3.20
2019-01-20T11:58:12.317Z,3.10
2019-01-20T12:00:41.417Z,3.10
2019-01-20T12:03:10.584Z,3.00
2019-01-20T12:05:42.031Z,3.00
2019-01-20T12:08:11.410Z,2.60
2019-01-20T12:10:41.567Z,2.80
2019-01-20T12:13:15.399Z,2.90
2019-01-20T12:15:44.533Z,2.70
2019-01-20T12:18:13.601Z,2.70
2019-01-20T12:20:42.626Z,2.50
2019-01-20T12:23:11.867Z,2.10
2019-01-20T12:25:40.905Z,1.80
2019-01-20T12:28:09.976Z,1.80
2019-01-20T12:30:39.641Z,1.90
2019-01-20T12:33:09.082Z,1.80
2019-01-20T12:35:38.437Z,2.00
2019-01-20T12:38:08.187Z,2.00
2019-01-20T12:40:40.751Z,2.20
2019-01-20T12:43:09.991Z,2.30
2019-01-20T12:45:39.045Z,2.40
2019-01-20T12:48:08.120Z,2.40
2019-01-20T12:50:37.266Z,2.30
2019-01-20T12:53:06.502Z,2.30
2019-01-20T12:55:35.859Z,2.30
2019-01-20T12:58:05.512Z,2.40
2019-01-20T13:00:34.649Z,2.60
2019-01-20T13:03:03.632Z,2.70
2019-01-20T13:05:32.748Z,2.70
2019-01-20T13:08:02.006Z,2.60
2019-01-20T13:10:31.219Z,2.70
2019-01-20T13:13:00.154Z,2.40
2019-01-20T13:15:29.322Z,2.40
2019-01-20T13:17:58.490Z,2.10
2019-01-20T13:20:27.972Z,2.20
2019-01-20T13:22:57.123Z,2.20
2019-01-20T13:25:28.333Z,2.30
2019-01-20T13:27:57.363Z,2.50
2019-01-20T13:30:28.022Z,2.70
2019-01-20T13:32:57.107Z,2.40
2019-01-20T13:35:27.021Z,2.70
2019-01-20T13:38:01.886Z,2.60
2019-01-20T13:40:37.519Z,2.50
2019-01-20T13:43:06.778Z,2.50
2019-01-20T13:45:35.858Z,2.40
2019-01-20T13:48:05.030Z,2.30
2019-01-20T13:50:34.141Z,2.30
2019-01-20T13:53:03.157Z,2.30
2019-01-20T13:55:32.096Z,2.30
2019-01-20T13:58:01.402Z,2.30
2019-01-20T14:00:30.713Z,2.50
2019-01-20T14:02:59.798Z,2.20
2019-01-20T14:05:28.944Z,2.30
2019-01-20T14:07:58.200Z,2.30
2019-01-20T14:10:27.702Z,2.30
2019-01-20T14:12:56.878Z,2.00
2019-01-20T14:15:25.941Z,2.10
2019-01-20T14:17:55.121Z,2.10
2019-01-20T14:20:24.322Z,2.10
2019-01-20T14:22:53.531Z,2.00
2019-01-20T14:25:23.722Z,2.00
2019-01-20T14:27:52.718Z,1.70
2019-01-20T14:30:27.060Z,1.50
2019-01-20T14:32:55.969Z,1.60
2019-01-20T14:35:25.577Z,1.70
2019-01-20T14:37:54.828Z,1.70
2019-01-20T14:40:23.985Z,1.70
2019-01-20T14:42:54.250Z,1.70
2019-01-20T14:45:23.552Z,2.00
2019-01-20T14:47:52.626Z,2.10
2019-01-20T14:50:23.313Z,2.30
2019-01-20T14:52:52.434Z,2.30
2019-01-20T14:55:21.470Z,1.80
2019-01-20T14:57:50.454Z,1.60
2019-01-20T15:00:22.730Z,1.60
2019-01-20T15:02:51.881Z,1.60
2019-01-20T15:05:20.936Z,1.30
2019-01-20T15:07:50.030Z,1.20
2019-01-20T15:10:19.187Z,1.20
2019-01-20T15:12:48.113Z,1.20
2019-01-20T15:15:20.671Z,1.20
2019-01-20T15:17:49.690Z,1.10
2019-01-20T15:20:19.681Z,1.10
2019-01-20T15:22:49.118Z,1.20
2019-01-20T15:25:18.561Z,1.20
2019-01-20T15:27:47.694Z,1.10
2019-01-20T15:30:27.973Z,1.10
2019-01-20T15:32:58.021Z,0.60
2019-01-20T15:35:27.228Z,0.60
2019-01-20T15:37:57.899Z,0.70
2019-01-20T15:40:27.439Z,0.70
2019-01-20T15:42:56.473Z,0.60
2019-01-20T15:45:27.166Z,0.50
2019-01-20T15:47:56.899Z,0.50
2019-01-20T15:50:28.342Z,0.40
2019-01-20T15:52:57.588Z,0.40
2019-01-20T15:55:26.665Z,0.40
2019-01-20T15:57:55.845Z,0.40
2019-01-20T16:00:27.221Z,0.30
2019-01-20T16:02:56.257Z,0.20
2019-01-20T16:05:28.794Z,0.20
2019-01-20T16:07:59.241Z,0.20
2019-01-20T16:10:28.326Z,0.00
2019-01-20T16:12:57.488Z,0.00
2019-01-20T16:15:31.775Z,0.10
2019-01-20T16:18:01.317Z,0.00
2019-01-20T16:20:31.764Z,-0.10
2019-01-20T16:23:01.769Z,-0.10
2019-01-20T16:25:33.431Z,-0.20
2019-01-20T16:28:02.462Z,-0.30
2019-01-20T16:30:33.946Z,-0.30
2019-01-20T16:33:03.298Z,-0.30
2019-01-20T16:35:32.611Z,-0.40
2019-01-20T16:38:02.372Z,-0.50
2019-01-20T16:40:31.921Z,-0.50
2019-01-20T16:43:01.344Z,-0.40
2019-01-20T16:45:42.567Z,-0.40
2019-01-20T16:48:12.183Z,-0.40
2019-01-20T16:50:41.852Z,-0.40
2019-01-20T16:53:11.136Z,-0.50
2019-01-20T16:55:40.806Z,-0.60
2019-01-20T16:58:10.209Z,-0.50
2019-01-20T17:00:42.103Z,-0.50
2019-01-20T17:03:14.019Z,-0.60
2019-01-20T17:05:43.370Z,-0.50
2019-01-20T17:08:12.560Z,-0.60
2019-01-20T17:10:43.360Z,-0.60
2019-01-20T17:13:12.997Z,-0.60
2019-01-20T17:15:44.198Z,-0.60
2019-01-20T17:18:16.849Z,-0.60
2019-01-20T17:20:46.152Z,-0.60
2019-01-20T17:23:15.361Z,-0.60
2019-01-20T17:25:44.730Z,-0.70
2019-01-20T17:28:13.938Z,-0.70
2019-01-20T17:30:47.452Z,-0.70
2019-01-20T17:33:16.675Z,-0.70
2019-01-20T17:35:45.935Z,-0.80
2019-01-20T17:38:15.172Z,-0.70
2019-01-20T17:40:44.737Z,-0.80
2019-01-20T17:43:13.805Z,-0.80
2019-01-20T17:45:48.690Z,-0.80
2019-01-20T17:48:17.062Z,-0.70
2019-01-20T17:50:47.844Z,-0.70
2019-01-20T17:53:17.675Z,-0.70
2019-01-20T17:55:46.951Z,-0.70
2019-01-20T17:58:16.211Z,-0.70
2019-01-20T18:00:58.564Z,-0.70
2019-01-20T18:03:27.807Z,-0.80
2019-01-20T18:05:58.740Z,-0.80
2019-01-20T18:08:29.123Z,-0.80
2019-01-20T18:10:58.255Z,-0.80
2019-01-20T18:13:27.870Z,-0.80
2019-01-20T18:15:57.480Z,-0.80
2019-01-20T18:18:26.694Z,-0.90
2019-01-20T18:20:56.029Z,-0.90
2019-01-20T18:23:25.234Z,-0.80
2019-01-20T18:25:54.431Z,-0.80
2019-01-20T18:28:23.477Z,-0.90
2019-01-20T18:30:54.137Z,-0.90
2019-01-20T18:33:23.421Z,-0.90
2019-01-20T18:35:52.775Z,-1.00
2019-01-20T18:38:22.067Z,-0.90
2019-01-20T18:40:51.575Z,-0.90
2019-01-20T18:43:20.644Z,-0.90
2019-01-20T18:45:49.683Z,-1.00
2019-01-20T18:48:19.098Z,-1.00
2019-01-20T18:50:48.380Z,-1.00
2019-01-20T18:53:17.594Z,-0.90
2019-01-20T18:55:47.096Z,-1.00
2019-01-20T18:58:17.366Z,-1.00
2019-01-20T19:00:49.081Z,-1.00
2019-01-20T19:03:18.777Z,-1.00
2019-01-20T19:05:49.442Z,-1.00
2019-01-20T19:08:18.997Z,-1.00
2019-01-20T19:10:48.200Z,-1.00
2019-01-20T19:13:19.162Z,-1.00
2019-01-20T19:15:49.938Z,-1.00
2019-01-20T19:18:19.453Z,-1.00
2019-01-20T19:20:48.890Z,-1.00
2019-01-20T19:23:18.312Z,-1.00
2019-01-20T19:25:47.419Z,-1.00
2019-01-20T19:28:16.731Z,-1.10
2019-01-20T19:30:46.958Z,-1.00
2019-01-20T19:33:15.962Z,-1.00
2019-01-20T19:35:45.783Z,-1.00
2019-01-20T19:38:15.276Z,-1.00
2019-01-20T19:40:47.173Z,-1.00
2019-01-20T19:43:16.663Z,-1.10
2019-01-20T19:45:45.599Z,-1.00
2019-01-20T19:48:20.055Z,-1.10
2019-01-20T19:50:45.481Z,-1.10
2019-01-20T19:53:15.077Z,-1.10
2019-01-20T19:55:44.661Z,-1.10
2019-01-20T19:58:13.790Z,-1.10
2019-01-20T20:00:43.447Z,-1.10
2019-01-20T20:03:12.609Z,-1.10
2019-01-20T20:05:41.770Z,-1.10
2019-01-20T20:08:11.017Z,-1.00
2019-01-20T20:10:40.460Z,-1.00
2019-01-20T20:13:09.698Z,-1.10
2019-01-20T20:15:39.409Z,-1.00
2019-01-20T20:18:08.633Z,-1.00
2019-01-20T20:20:38.237Z,-1.00
2019-01-20T20:23:07.340Z,-1.00
2019-01-20T20:25:36.804Z,-1.00
2019-01-20T20:28:06.449Z,-0.90
2019-01-20T20:30:37.406Z,-0.90
2019-01-20T20:33:07.649Z,-0.90
2019-01-20T20:35:36.887Z,-0.90
2019-01-20T20:38:06.443Z,-0.90
2019-01-20T20:40:35.682Z,-0.90
2019-01-20T20:43:05.125Z,-0.90
2019-01-20T20:45:34.941Z,-0.90
2019-01-20T20:48:04.045Z,-0.90
2019-01-20T20:50:33.499Z,-0.90
2019-01-20T20:53:04.265Z,-0.90
2019-01-20T20:55:33.915Z,-0.90
2019-01-20T20:58:03.445Z,-0.90
2019-01-20T21:00:41.305Z,-0.90
2019-01-20T21:03:19.151Z,-1.00
2019-01-20T21:05:48.388Z,-1.00
2019-01-20T21:08:19.026Z,-1.00
2019-01-20T21:10:48.350Z,-1.00
2019-01-20T21:13:17.793Z,-1.00
2019-01-20T21:15:47.025Z,-1.00
2019-01-20T21:18:17.254Z,-1.10
2019-01-20T21:20:46.821Z,-1.20
2019-01-20T21:23:16.326Z,-1.20
2019-01-20T21:25:48.364Z,-1.10
2019-01-20T21:28:17.522Z,-1.10
2019-01-20T21:30:46.846Z,-1.20
2019-01-20T21:33:16.394Z,-1.10
2019-01-20T21:35:47.689Z,-1.10
2019-01-20T21:38:17.077Z,-1.10
2019-01-20T21:40:47.287Z,-1.10
2019-01-20T21:43:16.319Z,-1.20
2019-01-20T21:45:45.532Z,-1.10
2019-01-20T21:48:15.069Z,-1.10
2019-01-20T21:50:44.209Z,-1.10
2019-01-20T21:53:14.795Z,-1.10
2019-01-20T21:55:44.455Z,-1.10
2019-01-20T21:58:13.815Z,-1.10
2019-01-20T22:00:43.128Z,-1.00
2019-01-20T22:03:12.458Z,-1.10
2019-01-20T22:05:42.090Z,-1.00
2019-01-20T22:08:11.553Z,-1.00
2019-01-20T22:10:40.488Z,-1.10
2019-01-20T22:13:09.564Z,-1.10
2019-01-20T22:15:38.903Z,-1.10
2019-01-20T22:18:07.903Z,-1.20
2019-01-20T22:20:37.265Z,-1.20
2019-01-20T22:23:06.452Z,-1.20
2019-01-20T22:25:35.584Z,-1.30
2019-01-20T22:28:06.745Z,-1.20
2019-01-20T22:30:36.000Z,-1.20
2019-01-20T22:33:05.290Z,-1.20
2019-01-20T22:35:35.348Z,-1.20
2019-01-20T22:38:05.282Z,-1.30
2019-01-20T22:40:34.342Z,-1.30
2019-01-20T22:43:03.540Z,-1.40
2019-01-20T22:45:32.599Z,-1.30
2019-01-20T22:48:01.869Z,-1.30
2019-01-20T22:50:31.201Z,-1.40
2019-01-20T22:53:01.192Z,-1.40
2019-01-20T22:55:30.847Z,-1.50
2019-01-20T22:57:59.993Z,-1.50
2019-01-20T23:00:43.873Z,-1.50
2019-01-20T23:03:13.008Z,-1.40
2019-01-20T23:05:42.438Z,-1.40
2019-01-20T23:08:11.502Z,-1.40
2019-01-20T23:10:40.982Z,-1.50
2019-01-20T23:13:10.091Z,-1.40
2019-01-20T23:15:39.613Z,-1.30
2019-01-20T23:18:08.858Z,-1.40
2019-01-20T23:20:38.133Z,-1.30
2019-01-20T23:23:07.166Z,-1.30
2019-01-20T23:25:36.598Z,-1.30
2019-01-20T23:28:05.766Z,-1.30
2019-01-20T23:30:35.306Z,-1.30
2019-01-20T23:33:04.363Z,-1.40
2019-01-20T23:35:34.030Z,-1.40
2019-01-20T23:38:03.661Z,-1.40
2019-01-20T23:40:32.766Z,-1.40
2019-01-20T23:43:02.197Z,-1.40
2019-01-20T23:45:31.662Z,-1.40
2019-01-20T23:48:00.583Z,-1.40
2019-01-20T23:50:31.818Z,-1.40
2019-01-20T23:53:01.109Z,-1.40
2019-01-20T23:55:30.365Z,-1.40
2019-01-20T23:57:59.738Z,-1.40
